Neuburg — 5BQJ2 — position and weather

sailwx.info

Track history (hours):
 
Tides and Currents Weather Stations Pressure Air Temp Water Temp Dewpoint Dewpoint Depression Visibility Wind Speed Wind Dir Waves Ship Positions

Neuburg

Last reported at 2016-Jul-01 00:15 UTC. Time now 2016-Jul-01 01:02 UTC.
Position N 41°35' E 003°04'.

Length 142 m; draft 5.7 m.

Type: Cargo ship. MMSI: 212740000.

Date/timePositionNaut miles runAvg speedWind from/ knotsBaromVisibWave heightAir tempDewpointWater temp
2016-Jul-01 00:15N 41°35' E 003°04'1312.1
2016-Jun-30 23:11N 41°40' E 003°20'812.6
2016-Jun-30 22:32N 41°43' E 003°30'6412.2
2016-Jun-30 17:15N 42°09' E 004°50'2514.8
2016-Jun-30 15:32N 42°20' E 005°20'4514.9
2016-Jun-30 12:33N 42°40' E 006°15'1615.4
2016-Jun-30 11:32N 42°47' E 006°33'1615.7
2016-Jun-30 10:30N 42°56' E 006°52'1515.5
2016-Jun-30 09:33N 43°06' E 007°07'1515.0
2016-Jun-30 08:33N 43°15' E 007°23'1715.0
2016-Jun-30 07:26N 43°27' E 007°40'1315.2
2016-Jun-30 06:33N 43°36' E 007°53'1515.4
2016-Jun-30 05:33N 43°47' E 008°08'1615.5
2016-Jun-30 04:33N 43°57' E 008°24'1515.3
2016-Jun-30 03:33N 44°08' E 008°39'1515.3
2016-Jun-30 02:33N 44°18' E 008°55'6 5.8
2016-Jun-30 01:30N 44°24' E 008°53'0 0.0
2016-Jun-30 00:30N 44°24' E 008°53'0 0.0
2016-Jun-29 23:30N 44°24' E 008°53'0 0.0
2016-Jun-29 22:33N 44°24' E 008°53'0 0.0
2016-Jun-29 21:33N 44°24' E 008°53'0 0.0
2016-Jun-29 20:33N 44°24' E 008°53'0 0.0
2016-Jun-29 19:33N 44°24' E 008°53'0 0.0
2016-Jun-29 18:30N 44°24' E 008°53'0 0.0
2016-Jun-29 17:33N 44°24' E 008°53'5 5.3
2016-Jun-29 16:33N 44°21' E 008°59'1313.2
2016-Jun-29 15:34N 44°11' E 008°46'1616.4
2016-Jun-29 14:33N 44°00' E 008°29'1616.3
2016-Jun-29 13:33N 43°49' E 008°13'1616.1
2016-Jun-29 12:33N 43°38' E 007°56'2116.3
2016-Jun-29 11:18N 43°24' E 007°35'1216.4
2016-Jun-29 10:33N 43°16' E 007°23'1616.5
2016-Jun-29 09:33N 43°05' E 007°06'13316.2
2016-Jun-29 01:21N 42°03' E 004°26'1316.5
2016-Jun-29 00:33N 41°57' E 004°11'1716.8
2016-Jun-28 23:33N 41°49' E 003°51'1616.4
2016-Jun-28 22:33N 41°42' E 003°31'1716.7
2016-Jun-28 21:33N 41°36' E 003°10'1716.7
2016-Jun-28 20:33N 41°29' E 002°50'1616.4
2016-Jun-28 19:33N 41°22' E 002°30'1515.3
2016-Jun-28 18:33N 41°17' E 002°11'5 4.7
2016-Jun-28 17:33N 41°21' E 002°10'0 0.0
2016-Jun-28 16:09N 41°21' E 002°10'0 0.0
2016-Jun-28 15:09N 41°21' E 002°10'0 0.0
2016-Jun-28 14:33N 41°21' E 002°10'0 0.0
2016-Jun-28 13:15N 41°21' E 002°10'5 7.3
2016-Jun-28 12:33N 41°16' E 002°11'1616.2
2016-Jun-28 11:33N 41°01' E 002°04'1616.3
2016-Jun-28 10:33N 40°46' E 001°54'1616.6
2016-Jun-28 09:33N 40°31' E 001°45'1615.8
2016-Jun-28 08:33N 40°19' E 001°33'1716.5
2016-Jun-28 07:33N 40°04' E 001°22'1616.4
2016-Jun-28 06:33N 39°50' E 001°13'125 8.1
2016-Jun-27 15:13N 38°10' W 000°23'1116.4
2016-Jun-27 14:34N 37°59' W 000°25'1616.2
2016-Jun-27 13:34N 37°43' W 000°28'1414.2
2016-Jun-27 12:33N 37°30' W 000°36'1514.5
2016-Jun-27 11:33N 37°20' W 000°50'1414.4
2016-Jun-27 10:33N 37°10' W 001°03'21415.2
2016-Jun-26 20:29N 35°59' W 005°14'  
2016-Jun-24 00:33N 28°16' W 015°37'1413.5
2016-Jun-23 23:33N 28°10' W 015°23'3 2.5
2016-Jun-23 22:31N 28°08' W 015°25'0 0.0
2016-Jun-23 21:31N 28°08' W 015°25'0 0.0
2016-Jun-23 20:28N 28°08' W 015°25'0 0.0
2016-Jun-23 19:31N 28°08' W 015°25'0 0.0
2016-Jun-23 18:31N 28°08' W 015°25'0 0.0
2016-Jun-23 17:31N 28°08' W 015°25'0 0.0
2016-Jun-23 16:31N 28°08' W 015°25'0 0.0
2016-Jun-23 15:31N 28°08' W 015°25'0 0.0
2016-Jun-23 14:31N 28°08' W 015°25'0 0.0
2016-Jun-23 13:31N 28°08' W 015°25'0 0.0
2016-Jun-23 12:34N 28°08' W 015°25'0 0.0
2016-Jun-23 11:33N 28°08' W 015°25'0 0.0
2016-Jun-23 10:33N 28°08' W 015°25'0 0.0
2016-Jun-23 09:33N 28°08' W 015°25'0 0.0
2016-Jun-23 08:33N 28°08' W 015°25'0 0.0
2016-Jun-23 07:33N 28°08' W 015°25'0 0.0
2016-Jun-23 05:33N 28°08' W 015°25'0 0.0
2016-Jun-23 04:33N 28°08' W 015°25'0 0.0
2016-Jun-23 03:33N 28°08' W 015°25'0 0.0
2016-Jun-23 02:33N 28°08' W 015°25'0 0.0
2016-Jun-23 01:33N 28°08' W 015°25'2 2.4
2016-Jun-23 00:34N 28°08' W 015°22'1413.5
2016-Jun-22 23:33N 28°14' W 015°09'1615.9
2016-Jun-22 22:33N 28°23' W 014°53'1615.7
2016-Jun-22 21:33N 28°30' W 014°38'1515.3
2016-Jun-22 20:33N 28°37' W 014°22'1515.4
2016-Jun-22 19:33N 28°43' W 014°06'1515.2
2016-Jun-22 18:33N 28°48' W 013°50'1515.2
2016-Jun-22 17:33N 28°55' W 013°34'4 1.8
2016-Jun-22 15:29N 28°58' W 013°32'0 0.0
2016-Jun-22 13:29N 28°58' W 013°32'0 0.0
2016-Jun-22 07:25N 28°58' W 013°32'2 2.0
2016-Jun-22 06:33N 28°57' W 013°32'9 8.9
2016-Jun-22 05:33N 28°52' W 013°41'1515.4
2016-Jun-22 04:33N 28°48' W 013°58'1515.4
2016-Jun-22 03:33N 28°41' W 014°14'1515.4
2016-Jun-22 02:33N 28°34' W 014°29'1515.3
2016-Jun-22 01:33N 28°27' W 014°45'1515.0
2016-Jun-22 00:33N 28°20' W 014°60'1515.1
2016-Jun-21 23:34N 28°12' W 015°14'10 9.3
2016-Jun-21 22:27N 28°08' W 015°25'0 0.0
2016-Jun-21 21:27N 28°08' W 015°25'0 0.0
2016-Jun-21 20:27N 28°08' W 015°25'0 0.0
2016-Jun-21 19:27N 28°08' W 015°25'0 0.0
2016-Jun-21 18:30N 28°08' W 015°25'0 0.0
2016-Jun-21 17:30N 28°08' W 015°25'1 1.4
2016-Jun-21 16:33N 28°07' W 015°24'1110.6
2016-Jun-21 15:33N 28°13' W 015°34'1515.0
2016-Jun-21 14:34N 28°16' W 015°50'1514.8
2016-Jun-21 13:33N 28°22' W 016°06'10 9.3
2016-Jun-21 12:30N 28°29' W 016°13'0 0.0
2016-Jun-21 11:33N 28°29' W 016°13'0 0.0
2016-Jun-21 10:03N 28°29' W 016°13'0 0.0
2016-Jun-21 09:33N 28°29' W 016°13'6 5.7
2016-Jun-21 08:33N 28°30' W 016°07'1616.0
2016-Jun-21 07:33N 28°40' W 015°52'3115.6
2016-Jun-21 05:33N 29°00' W 015°26'1615.9
2016-Jun-21 04:33N 29°10' W 015°12'1615.8
2016-Jun-21 03:33N 29°22' W 014°59'1615.8
2016-Jun-21 02:33N 29°32' W 014°45'1616.2
2016-Jun-21 01:33N 29°42' W 014°31'1716.2
2016-Jun-21 00:32N 29°53' W 014°16'  
Track history (hours):
 
Tides and Currents Weather Stations Pressure Air Temp Water Temp Dewpoint Dewpoint Depression Visibility Wind Speed Wind Dir Waves Ship Positions

Neuburg

Last reported at 2016-Jul-01 00:15 UTC. Time now 2016-Jul-01 01:02 UTC.
Position N 41°35' E 003°04'.

Length 142 m; draft 5.7 m.

Type: Cargo ship. MMSI: 212740000.

Date/timePositionNaut miles runAvg speedWind from/ knotsBaromVisibWave heightAir tempDewpointWater temp
2016-Jul-01 00:15N 41°35' E 003°04'1312.1
2016-Jun-30 23:11N 41°40' E 003°20'812.6
2016-Jun-30 22:32N 41°43' E 003°30'6412.2
2016-Jun-30 17:15N 42°09' E 004°50'2514.8
2016-Jun-30 15:32N 42°20' E 005°20'4514.9
2016-Jun-30 12:33N 42°40' E 006°15'1615.4
2016-Jun-30 11:32N 42°47' E 006°33'1615.7
2016-Jun-30 10:30N 42°56' E 006°52'1515.5
2016-Jun-30 09:33N 43°06' E 007°07'1515.0
2016-Jun-30 08:33N 43°15' E 007°23'1715.0
2016-Jun-30 07:26N 43°27' E 007°40'1315.2
2016-Jun-30 06:33N 43°36' E 007°53'1515.4
2016-Jun-30 05:33N 43°47' E 008°08'1615.5
2016-Jun-30 04:33N 43°57' E 008°24'1515.3
2016-Jun-30 03:33N 44°08' E 008°39'1515.3
2016-Jun-30 02:33N 44°18' E 008°55'6 5.8
2016-Jun-30 01:30N 44°24' E 008°53'0 0.0
2016-Jun-30 00:30N 44°24' E 008°53'0 0.0
2016-Jun-29 23:30N 44°24' E 008°53'0 0.0
2016-Jun-29 22:33N 44°24' E 008°53'0 0.0
2016-Jun-29 21:33N 44°24' E 008°53'0 0.0
2016-Jun-29 20:33N 44°24' E 008°53'0 0.0
2016-Jun-29 19:33N 44°24' E 008°53'0 0.0
2016-Jun-29 18:30N 44°24' E 008°53'0 0.0
2016-Jun-29 17:33N 44°24' E 008°53'5 5.3
2016-Jun-29 16:33N 44°21' E 008°59'1313.2
2016-Jun-29 15:34N 44°11' E 008°46'1616.4
2016-Jun-29 14:33N 44°00' E 008°29'1616.3
2016-Jun-29 13:33N 43°49' E 008°13'1616.1
2016-Jun-29 12:33N 43°38' E 007°56'2116.3
2016-Jun-29 11:18N 43°24' E 007°35'1216.4
2016-Jun-29 10:33N 43°16' E 007°23'1616.5
2016-Jun-29 09:33N 43°05' E 007°06'13316.2
2016-Jun-29 01:21N 42°03' E 004°26'1316.5
2016-Jun-29 00:33N 41°57' E 004°11'1716.8
2016-Jun-28 23:33N 41°49' E 003°51'1616.4
2016-Jun-28 22:33N 41°42' E 003°31'1716.7
2016-Jun-28 21:33N 41°36' E 003°10'1716.7
2016-Jun-28 20:33N 41°29' E 002°50'1616.4
2016-Jun-28 19:33N 41°22' E 002°30'1515.3
2016-Jun-28 18:33N 41°17' E 002°11'5 4.7
2016-Jun-28 17:33N 41°21' E 002°10'0 0.0
2016-Jun-28 16:09N 41°21' E 002°10'0 0.0
2016-Jun-28 15:09N 41°21' E 002°10'0 0.0
2016-Jun-28 14:33N 41°21' E 002°10'0 0.0
2016-Jun-28 13:15N 41°21' E 002°10'5 7.3
2016-Jun-28 12:33N 41°16' E 002°11'1616.2
2016-Jun-28 11:33N 41°01' E 002°04'1616.3
2016-Jun-28 10:33N 40°46' E 001°54'1616.6
2016-Jun-28 09:33N 40°31' E 001°45'1615.8
2016-Jun-28 08:33N 40°19' E 001°33'1716.5
2016-Jun-28 07:33N 40°04' E 001°22'1616.4
2016-Jun-28 06:33N 39°50' E 001°13'125 8.1
2016-Jun-27 15:13N 38°10' W 000°23'1116.4
2016-Jun-27 14:34N 37°59' W 000°25'1616.2
2016-Jun-27 13:34N 37°43' W 000°28'1414.2
2016-Jun-27 12:33N 37°30' W 000°36'1514.5
2016-Jun-27 11:33N 37°20' W 000°50'1414.4
2016-Jun-27 10:33N 37°10' W 001°03'21415.2
2016-Jun-26 20:29N 35°59' W 005°14'  
2016-Jun-24 00:33N 28°16' W 015°37'1413.5
2016-Jun-23 23:33N 28°10' W 015°23'3 2.5
2016-Jun-23 22:31N 28°08' W 015°25'0 0.0
2016-Jun-23 21:31N 28°08' W 015°25'0 0.0
2016-Jun-23 20:28N 28°08' W 015°25'0 0.0
2016-Jun-23 19:31N 28°08' W 015°25'0 0.0
2016-Jun-23 18:31N 28°08' W 015°25'0 0.0
2016-Jun-23 17:31N 28°08' W 015°25'0 0.0
2016-Jun-23 16:31N 28°08' W 015°25'0 0.0
2016-Jun-23 15:31N 28°08' W 015°25'0 0.0
2016-Jun-23 14:31N 28°08' W 015°25'0 0.0
2016-Jun-23 13:31N 28°08' W 015°25'0 0.0
2016-Jun-23 12:34N 28°08' W 015°25'0 0.0
2016-Jun-23 11:33N 28°08' W 015°25'0 0.0
2016-Jun-23 10:33N 28°08' W 015°25'0 0.0
2016-Jun-23 09:33N 28°08' W 015°25'0 0.0
2016-Jun-23 08:33N 28°08' W 015°25'0 0.0
2016-Jun-23 07:33N 28°08' W 015°25'0 0.0
2016-Jun-23 05:33N 28°08' W 015°25'0 0.0
2016-Jun-23 04:33N 28°08' W 015°25'0 0.0
2016-Jun-23 03:33N 28°08' W 015°25'0 0.0
2016-Jun-23 02:33N 28°08' W 015°25'0 0.0
2016-Jun-23 01:33N 28°08' W 015°25'2 2.4
2016-Jun-23 00:34N 28°08' W 015°22'1413.5
2016-Jun-22 23:33N 28°14' W 015°09'1615.9
2016-Jun-22 22:33N 28°23' W 014°53'1615.7
2016-Jun-22 21:33N 28°30' W 014°38'1515.3
2016-Jun-22 20:33N 28°37' W 014°22'1515.4
2016-Jun-22 19:33N 28°43' W 014°06'1515.2
2016-Jun-22 18:33N 28°48' W 013°50'1515.2
2016-Jun-22 17:33N 28°55' W 013°34'4 1.8
2016-Jun-22 15:29N 28°58' W 013°32'0 0.0
2016-Jun-22 13:29N 28°58' W 013°32'0 0.0
2016-Jun-22 07:25N 28°58' W 013°32'2 2.0
2016-Jun-22 06:33N 28°57' W 013°32'9 8.9
2016-Jun-22 05:33N 28°52' W 013°41'1515.4
2016-Jun-22 04:33N 28°48' W 013°58'1515.4
2016-Jun-22 03:33N 28°41' W 014°14'1515.4
2016-Jun-22 02:33N 28°34' W 014°29'1515.3
2016-Jun-22 01:33N 28°27' W 014°45'1515.0
2016-Jun-22 00:33N 28°20' W 014°60'1515.1
2016-Jun-21 23:34N 28°12' W 015°14'10 9.3
2016-Jun-21 22:27N 28°08' W 015°25'0 0.0
2016-Jun-21 21:27N 28°08' W 015°25'0 0.0
2016-Jun-21 20:27N 28°08' W 015°25'0 0.0
2016-Jun-21 19:27N 28°08' W 015°25'0 0.0
2016-Jun-21 18:30N 28°08' W 015°25'0 0.0
2016-Jun-21 17:30N 28°08' W 015°25'1 1.4
2016-Jun-21 16:33N 28°07' W 015°24'1110.6
2016-Jun-21 15:33N 28°13' W 015°34'1515.0
2016-Jun-21 14:34N 28°16' W 015°50'1514.8
2016-Jun-21 13:33N 28°22' W 016°06'10 9.3
2016-Jun-21 12:30N 28°29' W 016°13'0 0.0
2016-Jun-21 11:33N 28°29' W 016°13'0 0.0
2016-Jun-21 10:03N 28°29' W 016°13'0 0.0
2016-Jun-21 09:33N 28°29' W 016°13'6 5.7
2016-Jun-21 08:33N 28°30' W 016°07'1616.0
2016-Jun-21 07:33N 28°40' W 015°52'3115.6
2016-Jun-21 05:33N 29°00' W 015°26'1615.9
2016-Jun-21 04:33N 29°10' W 015°12'1615.8
2016-Jun-21 03:33N 29°22' W 014°59'1615.8
2016-Jun-21 02:33N 29°32' W 014°45'1616.2
2016-Jun-21 01:33N 29°42' W 014°31'1716.2
2016-Jun-21 00:32N 29°53' W 014°16'  

Dump ship's entire track history